Moana — PBOT — position and weather

sailwx.info

Track history (hours):
 
Tides and Currents Weather Stations Pressure Air Temp Water Temp Dewpoint Dewpoint Depression Visibility Wind Speed Wind Dir Waves Ship Positions

Moana

Last reported at 2018-Jun-21 06:11 UTC. Time now 2018-Jun-21 16:26 UTC.
Position N 49°45' W 003°26'.

Length 90 m; draft 3.8 m.

MMSI: 2463000.

Date/timePositionNaut miles runAvg speedWind from/ knotsBaromVisibWave heightAir tempDewpointWater temp
2018-Jun-21 06:11N 49°45' W 003°26'311.4
2018-Jun-21 05:58N 49°46' W 003°22'511.2
2018-Jun-21 05:30N 49°49' W 003°16'510.7
2018-Jun-21 05:00N 49°52' W 003°09'510.4
2018-Jun-21 04:30N 49°54' W 003°01'5 9.9
2018-Jun-21 04:00N 49°57' W 002°55'5 9.1
2018-Jun-21 03:30N 49°58' W 002°48'4 8.7
2018-Jun-21 03:00N 49°60' W 002°42'4 8.5
2018-Jun-21 02:30N 50°01' W 002°36'4 8.0
2018-Jun-21 02:00N 50°03' W 002°30'65 9.7
2018-Jun-20 19:16N 50°22' W 000°52'311.7
2018-Jun-20 18:59N 50°23' W 000°47'511.3
2018-Jun-20 18:30N 50°24' W 000°39'510.8
2018-Jun-20 18:00N 50°26' W 000°31'510.5
2018-Jun-20 17:30N 50°28' W 000°23'510.1
2018-Jun-20 16:59N 50°29' W 000°15'7 9.5
2018-Jun-20 16:16N 50°31' W 000°05'2 9.0
2018-Jun-20 16:00N 50°32' W 000°01'510.0
2018-Jun-20 15:29N 50°33' E 000°06'4 8.3
2018-Jun-20 15:00N 50°35' E 000°12'4 7.9
2018-Jun-20 14:30N 50°36' E 000°18'4 7.6
2018-Jun-20 14:00N 50°37' E 000°24'4 7.8
2018-Jun-20 13:30N 50°38' E 000°30'4 8.4
2018-Jun-20 13:00N 50°40' E 000°36'5 9.2
2018-Jun-20 12:30N 50°43' E 000°42'510.0
2018-Jun-20 12:00N 50°45' E 000°48'510.6
2018-Jun-20 11:30N 50°48' E 000°55'510.9
2018-Jun-20 11:00N 50°52' E 001°02'510.9
2018-Jun-20 10:30N 50°55' E 001°09'510.6
2018-Jun-20 10:00N 50°58' E 001°15'510.3
2018-Jun-20 09:30N 51°02' E 001°22'5 9.8
2018-Jun-20 09:00N 51°05' E 001°28'4 8.8
2018-Jun-20 08:30N 51°08' E 001°33'4 7.9
2018-Jun-20 08:00N 51°10' E 001°38'4 7.6
2018-Jun-20 07:30N 51°13' E 001°42'4 7.6
2018-Jun-20 07:00N 51°16' E 001°46'4 7.4
2018-Jun-20 06:30N 51°19' E 001°49'4 7.2
2018-Jun-20 06:00N 51°22' E 001°52'4 7.3
2018-Jun-20 05:30N 51°25' E 001°56'4 7.7
2018-Jun-20 05:00N 51°28' E 001°59'4 8.2
2018-Jun-20 04:30N 51°31' E 002°04'4 8.6
2018-Jun-20 04:00N 51°34' E 002°08'5 9.4
2018-Jun-20 03:29N 51°38' E 002°13'5 9.9
2018-Jun-20 03:00N 51°42' E 002°18'810.7
2018-Jun-20 02:17N 51°48' E 002°26'311.1
2018-Jun-20 02:00N 51°50' E 002°29'3610.4
2018-Jun-19 22:32N 52°18' E 003°07'1 9.1
2018-Jun-19 22:25N 52°19' E 003°08'53 9.0
2018-Jun-19 16:30N 52°59' E 004°05'611.6
2018-Jun-19 15:56N 53°03' E 004°13'511.7
2018-Jun-19 15:30N 53°06' E 004°20'30 9.6
2018-Jun-19 12:25N 53°30' E 004°50'4 8.9
2018-Jun-19 12:00N 53°31' E 004°56'104 9.1
2018-Jun-19 00:34N 54°01' E 007°45'3 8.9
2018-Jun-19 00:12N 54°01' E 007°50'2 8.9
2018-Jun-18 23:57N 54°01' E 007°54'4 8.7
2018-Jun-18 23:29N 54°01' E 008°01'4 9.0
2018-Jun-18 23:00N 54°01' E 008°09'4 8.3
2018-Jun-18 22:30N 54°00' E 008°15'610.9
2018-Jun-18 22:00N 53°59' E 008°25'612.2
2018-Jun-18 21:30N 53°58' E 008°35'713.2
2018-Jun-18 21:00N 53°53' E 008°43'713.2
2018-Jun-18 20:30N 53°51' E 008°53'713.9
2018-Jun-18 20:00N 53°52' E 009°04'3 5.6
2018-Jun-18 19:28N 53°54' E 009°09'1 3.3
2018-Jun-18 19:00N 53°55' E 009°11'4 8.4
2018-Jun-18 18:30N 53°58' E 009°15'4 8.3
2018-Jun-18 18:00N 54°02' E 009°18'6 8.6
2018-Jun-18 17:20N 54°07' E 009°20'3 7.8
2018-Jun-18 16:59N 54°09' E 009°23'4 8.4
2018-Jun-18 16:31N 54°11' E 009°29'4 8.5
2018-Jun-18 16:00N 54°13' E 009°35'3 6.2
2018-Jun-18 15:30N 54°16' E 009°38'2 4.2
2018-Jun-18 14:57N 54°17' E 009°40'0 0.0
2018-Jun-18 14:30N 54°17' E 009°40'0 0.0
2018-Jun-18 14:00N 54°17' E 009°40'0 0.0
2018-Jun-18 13:24N 54°17' E 009°40'0 0.0
2018-Jun-18 13:00N 54°17' E 009°40'0 0.0
2018-Jun-18 12:30N 54°17' E 009°40'0 0.0
2018-Jun-18 12:00N 54°17' E 009°40'0 0.0
2018-Jun-18 11:24N 54°17' E 009°40'0 0.0
2018-Jun-18 10:57N 54°17' E 009°40'0 0.0
2018-Jun-18 10:30N 54°17' E 009°40'0 0.0
2018-Jun-18 09:57N 54°17' E 009°40'0 0.0
2018-Jun-18 09:30N 54°17' E 009°40'0 0.0
2018-Jun-18 09:00N 54°17' E 009°40'0 0.0
2018-Jun-18 08:27N 54°17' E 009°40'0 0.0
2018-Jun-18 08:00N 54°17' E 009°40'0 0.0
2018-Jun-18 07:30N 54°17' E 009°40'0 0.0
2018-Jun-18 06:57N 54°17' E 009°40'0 0.0
2018-Jun-18 06:30N 54°17' E 009°40'0 0.0
2018-Jun-18 06:00N 54°17' E 009°40'0 0.0
2018-Jun-18 05:24N 54°17' E 009°40'0 0.0
2018-Jun-18 04:54N 54°17' E 009°40'0 0.0
2018-Jun-18 04:30N 54°17' E 009°40'0 0.0
2018-Jun-18 03:58N 54°17' E 009°40'0 0.0
2018-Jun-18 03:28N 54°17' E 009°40'0 0.0
2018-Jun-18 02:58N 54°17' E 009°40'0 0.0
2018-Jun-18 02:28N 54°17' E 009°40'0 0.0
2018-Jun-18 01:58N 54°17' E 009°40'0 0.0
2018-Jun-18 01:28N 54°17' E 009°40'0 0.0
2018-Jun-18 00:58N 54°17' E 009°40'0 0.0
2018-Jun-18 00:28N 54°17' E 009°40'0 0.0
2018-Jun-17 23:58N 54°17' E 009°40'0 0.0
2018-Jun-17 23:28N 54°17' E 009°40'0 0.0
2018-Jun-17 22:58N 54°17' E 009°40'0 0.0
2018-Jun-17 22:28N 54°17' E 009°40'0 0.0
2018-Jun-17 21:58N 54°17' E 009°40'0 0.0
2018-Jun-17 21:28N 54°17' E 009°40'0 0.0
2018-Jun-17 20:58N 54°17' E 009°40'0 0.0
2018-Jun-17 20:28N 54°17' E 009°40'0 0.0
2018-Jun-17 19:58N 54°17' E 009°40'0 0.0
2018-Jun-17 19:28N 54°17' E 009°40'  
2018-Jun-15 08:09N 54°18' E 009°40'0 0.0
2018-Jun-15 08:00N 54°18' E 009°40'0 0.0
2018-Jun-15 07:30N 54°18' E 009°40'0 0.0
2018-Jun-15 07:00N 54°18' E 009°40'0 0.1
2018-Jun-15 06:31N 54°18' E 009°40'3 6.7
2018-Jun-15 06:00N 54°15' E 009°37'4 7.5
2018-Jun-15 05:31N 54°12' E 009°33'5 9.1
2018-Jun-15 05:00N 54°10' E 009°26'4 8.1
2018-Jun-15 04:31N 54°08' E 009°20'3 6.6
2018-Jun-15 04:01N 54°05' E 009°19'4 8.5
2018-Jun-15 03:30N 54°00' E 009°18'4 8.8
2018-Jun-15 03:00N 53°57' E 009°14'4 7.0
2018-Jun-15 02:30N 53°54' E 009°10'1 1.6
2018-Jun-15 02:01N 53°53' E 009°09'2 4.6
2018-Jun-15 01:30N 53°53' E 009°05'510.7
2018-Jun-15 01:00N 53°51' E 008°57'612.0
2018-Jun-15 00:30N 53°51' E 008°46'611.3
2018-Jun-15 00:00N 53°55' E 008°40'611.4
2018-Jun-14 23:30N 53°58' E 008°32'611.8
2018-Jun-14 23:00N 53°59' E 008°22'610.7
2018-Jun-14 22:28N 53°60' E 008°13'511.0
2018-Jun-14 22:00N 53°60' E 008°04'510.7
2018-Jun-14 21:30N 54°03' E 007°56'378 9.2
2018-Jun-13 04:16N 57°32' W 001°25'2 9.1
2018-Jun-13 04:00N 57°33' W 001°29'4 8.8
2018-Jun-13 03:31N 57°35' W 001°35'5 9.3
2018-Jun-13 02:59N 57°38' W 001°43'  
Track history (hours):
 
Tides and Currents Weather Stations Pressure Air Temp Water Temp Dewpoint Dewpoint Depression Visibility Wind Speed Wind Dir Waves Ship Positions

Moana

Last reported at 2018-Jun-21 06:11 UTC. Time now 2018-Jun-21 16:26 UTC.
Position N 49°45' W 003°26'.

Length 90 m; draft 3.8 m.

MMSI: 2463000.

Date/timePositionNaut miles runAvg speedWind from/ knotsBaromVisibWave heightAir tempDewpointWater temp
2018-Jun-21 06:11N 49°45' W 003°26'311.4
2018-Jun-21 05:58N 49°46' W 003°22'511.2
2018-Jun-21 05:30N 49°49' W 003°16'510.7
2018-Jun-21 05:00N 49°52' W 003°09'510.4
2018-Jun-21 04:30N 49°54' W 003°01'5 9.9
2018-Jun-21 04:00N 49°57' W 002°55'5 9.1
2018-Jun-21 03:30N 49°58' W 002°48'4 8.7
2018-Jun-21 03:00N 49°60' W 002°42'4 8.5
2018-Jun-21 02:30N 50°01' W 002°36'4 8.0
2018-Jun-21 02:00N 50°03' W 002°30'65 9.7
2018-Jun-20 19:16N 50°22' W 000°52'311.7
2018-Jun-20 18:59N 50°23' W 000°47'511.3
2018-Jun-20 18:30N 50°24' W 000°39'510.8
2018-Jun-20 18:00N 50°26' W 000°31'510.5
2018-Jun-20 17:30N 50°28' W 000°23'510.1
2018-Jun-20 16:59N 50°29' W 000°15'7 9.5
2018-Jun-20 16:16N 50°31' W 000°05'2 9.0
2018-Jun-20 16:00N 50°32' W 000°01'510.0
2018-Jun-20 15:29N 50°33' E 000°06'4 8.3
2018-Jun-20 15:00N 50°35' E 000°12'4 7.9
2018-Jun-20 14:30N 50°36' E 000°18'4 7.6
2018-Jun-20 14:00N 50°37' E 000°24'4 7.8
2018-Jun-20 13:30N 50°38' E 000°30'4 8.4
2018-Jun-20 13:00N 50°40' E 000°36'5 9.2
2018-Jun-20 12:30N 50°43' E 000°42'510.0
2018-Jun-20 12:00N 50°45' E 000°48'510.6
2018-Jun-20 11:30N 50°48' E 000°55'510.9
2018-Jun-20 11:00N 50°52' E 001°02'510.9
2018-Jun-20 10:30N 50°55' E 001°09'510.6
2018-Jun-20 10:00N 50°58' E 001°15'510.3
2018-Jun-20 09:30N 51°02' E 001°22'5 9.8
2018-Jun-20 09:00N 51°05' E 001°28'4 8.8
2018-Jun-20 08:30N 51°08' E 001°33'4 7.9
2018-Jun-20 08:00N 51°10' E 001°38'4 7.6
2018-Jun-20 07:30N 51°13' E 001°42'4 7.6
2018-Jun-20 07:00N 51°16' E 001°46'4 7.4
2018-Jun-20 06:30N 51°19' E 001°49'4 7.2
2018-Jun-20 06:00N 51°22' E 001°52'4 7.3
2018-Jun-20 05:30N 51°25' E 001°56'4 7.7
2018-Jun-20 05:00N 51°28' E 001°59'4 8.2
2018-Jun-20 04:30N 51°31' E 002°04'4 8.6
2018-Jun-20 04:00N 51°34' E 002°08'5 9.4
2018-Jun-20 03:29N 51°38' E 002°13'5 9.9
2018-Jun-20 03:00N 51°42' E 002°18'810.7
2018-Jun-20 02:17N 51°48' E 002°26'311.1
2018-Jun-20 02:00N 51°50' E 002°29'3610.4
2018-Jun-19 22:32N 52°18' E 003°07'1 9.1
2018-Jun-19 22:25N 52°19' E 003°08'53 9.0
2018-Jun-19 16:30N 52°59' E 004°05'611.6
2018-Jun-19 15:56N 53°03' E 004°13'511.7
2018-Jun-19 15:30N 53°06' E 004°20'30 9.6
2018-Jun-19 12:25N 53°30' E 004°50'4 8.9
2018-Jun-19 12:00N 53°31' E 004°56'104 9.1
2018-Jun-19 00:34N 54°01' E 007°45'3 8.9
2018-Jun-19 00:12N 54°01' E 007°50'2 8.9
2018-Jun-18 23:57N 54°01' E 007°54'4 8.7
2018-Jun-18 23:29N 54°01' E 008°01'4 9.0
2018-Jun-18 23:00N 54°01' E 008°09'4 8.3
2018-Jun-18 22:30N 54°00' E 008°15'610.9
2018-Jun-18 22:00N 53°59' E 008°25'612.2
2018-Jun-18 21:30N 53°58' E 008°35'713.2
2018-Jun-18 21:00N 53°53' E 008°43'713.2
2018-Jun-18 20:30N 53°51' E 008°53'713.9
2018-Jun-18 20:00N 53°52' E 009°04'3 5.6
2018-Jun-18 19:28N 53°54' E 009°09'1 3.3
2018-Jun-18 19:00N 53°55' E 009°11'4 8.4
2018-Jun-18 18:30N 53°58' E 009°15'4 8.3
2018-Jun-18 18:00N 54°02' E 009°18'6 8.6
2018-Jun-18 17:20N 54°07' E 009°20'3 7.8
2018-Jun-18 16:59N 54°09' E 009°23'4 8.4
2018-Jun-18 16:31N 54°11' E 009°29'4 8.5
2018-Jun-18 16:00N 54°13' E 009°35'3 6.2
2018-Jun-18 15:30N 54°16' E 009°38'2 4.2
2018-Jun-18 14:57N 54°17' E 009°40'0 0.0
2018-Jun-18 14:30N 54°17' E 009°40'0 0.0
2018-Jun-18 14:00N 54°17' E 009°40'0 0.0
2018-Jun-18 13:24N 54°17' E 009°40'0 0.0
2018-Jun-18 13:00N 54°17' E 009°40'0 0.0
2018-Jun-18 12:30N 54°17' E 009°40'0 0.0
2018-Jun-18 12:00N 54°17' E 009°40'0 0.0
2018-Jun-18 11:24N 54°17' E 009°40'0 0.0
2018-Jun-18 10:57N 54°17' E 009°40'0 0.0
2018-Jun-18 10:30N 54°17' E 009°40'0 0.0
2018-Jun-18 09:57N 54°17' E 009°40'0 0.0
2018-Jun-18 09:30N 54°17' E 009°40'0 0.0
2018-Jun-18 09:00N 54°17' E 009°40'0 0.0
2018-Jun-18 08:27N 54°17' E 009°40'0 0.0
2018-Jun-18 08:00N 54°17' E 009°40'0 0.0
2018-Jun-18 07:30N 54°17' E 009°40'0 0.0
2018-Jun-18 06:57N 54°17' E 009°40'0 0.0
2018-Jun-18 06:30N 54°17' E 009°40'0 0.0
2018-Jun-18 06:00N 54°17' E 009°40'0 0.0
2018-Jun-18 05:24N 54°17' E 009°40'0 0.0
2018-Jun-18 04:54N 54°17' E 009°40'0 0.0
2018-Jun-18 04:30N 54°17' E 009°40'0 0.0
2018-Jun-18 03:58N 54°17' E 009°40'0 0.0
2018-Jun-18 03:28N 54°17' E 009°40'0 0.0
2018-Jun-18 02:58N 54°17' E 009°40'0 0.0
2018-Jun-18 02:28N 54°17' E 009°40'0 0.0
2018-Jun-18 01:58N 54°17' E 009°40'0 0.0
2018-Jun-18 01:28N 54°17' E 009°40'0 0.0
2018-Jun-18 00:58N 54°17' E 009°40'0 0.0
2018-Jun-18 00:28N 54°17' E 009°40'0 0.0
2018-Jun-17 23:58N 54°17' E 009°40'0 0.0
2018-Jun-17 23:28N 54°17' E 009°40'0 0.0
2018-Jun-17 22:58N 54°17' E 009°40'0 0.0
2018-Jun-17 22:28N 54°17' E 009°40'0 0.0
2018-Jun-17 21:58N 54°17' E 009°40'0 0.0
2018-Jun-17 21:28N 54°17' E 009°40'0 0.0
2018-Jun-17 20:58N 54°17' E 009°40'0 0.0
2018-Jun-17 20:28N 54°17' E 009°40'0 0.0
2018-Jun-17 19:58N 54°17' E 009°40'0 0.0
2018-Jun-17 19:28N 54°17' E 009°40'  
2018-Jun-15 08:09N 54°18' E 009°40'0 0.0
2018-Jun-15 08:00N 54°18' E 009°40'0 0.0
2018-Jun-15 07:30N 54°18' E 009°40'0 0.0
2018-Jun-15 07:00N 54°18' E 009°40'0 0.1
2018-Jun-15 06:31N 54°18' E 009°40'3 6.7
2018-Jun-15 06:00N 54°15' E 009°37'4 7.5
2018-Jun-15 05:31N 54°12' E 009°33'5 9.1
2018-Jun-15 05:00N 54°10' E 009°26'4 8.1
2018-Jun-15 04:31N 54°08' E 009°20'3 6.6
2018-Jun-15 04:01N 54°05' E 009°19'4 8.5
2018-Jun-15 03:30N 54°00' E 009°18'4 8.8
2018-Jun-15 03:00N 53°57' E 009°14'4 7.0
2018-Jun-15 02:30N 53°54' E 009°10'1 1.6
2018-Jun-15 02:01N 53°53' E 009°09'2 4.6
2018-Jun-15 01:30N 53°53' E 009°05'510.7
2018-Jun-15 01:00N 53°51' E 008°57'612.0
2018-Jun-15 00:30N 53°51' E 008°46'611.3
2018-Jun-15 00:00N 53°55' E 008°40'611.4
2018-Jun-14 23:30N 53°58' E 008°32'611.8
2018-Jun-14 23:00N 53°59' E 008°22'610.7
2018-Jun-14 22:28N 53°60' E 008°13'511.0
2018-Jun-14 22:00N 53°60' E 008°04'510.7
2018-Jun-14 21:30N 54°03' E 007°56'378 9.2
2018-Jun-13 04:16N 57°32' W 001°25'2 9.1
2018-Jun-13 04:00N 57°33' W 001°29'4 8.8
2018-Jun-13 03:31N 57°35' W 001°35'5 9.3
2018-Jun-13 02:59N 57°38' W 001°43'  

Dump ship's entire track history